Time;durP1;ratioP1;P1;durP2;ratioP2;P2;SDS_P1;SDS_P2;PMS_P1;PMS_P2;Temp;Humidity;BMP_temperature;BMP_pressure;BME280_temperature;BME280_humidity;BME280_pressure;Samples;Min_cycle;Max_cycle;Signal;HPM_P1;HPM_P2
2023/10/09 00:02:14;;;;;;;39.10;21.53;;;;;;;;;;2610000;39;20895;-77
2023/10/09 00:04:45;;;;;;;30.03;20.30;;;;;;;;;;2610849;54;20527;-74
2023/10/09 00:07:11;;;;;;;41.87;21.83;;;;;;;;;;2610890;54;20443;-74
2023/10/09 00:09:46;;;;;;;36.03;21.97;;;;;;;;;;2608958;39;20868;-75
2023/10/09 00:12:16;;;;;;;47.73;22.43;;;;;;;;;;2608289;54;20469;-75
2023/10/09 00:14:47;;;;;;;35.40;20.90;;;;;;;;;;2610046;47;20432;-74
2023/10/09 00:19:43;;;;;;;33.83;21.40;;;;;;;;;;2610293;54;20403;-74
2023/10/09 00:22:25;;;;;;;31.57;19.50;;;;;;;;;;2611088;54;20432;-74
2023/10/09 00:25:10;;;;;;;32.43;19.93;;;;;;;;;;2610335;47;20438;-74
2023/10/09 00:27:42;;;;;;;29.00;18.57;;;;;;;;;;2610939;54;20432;-75
2023/10/09 00:30:21;;;;;;;34.30;19.07;;;;;;;;;;2609683;54;20453;-75
2023/10/09 00:33:07;;;;;;;35.70;20.20;;;;;;;;;;2610427;54;20400;-75
2023/10/09 00:35:36;;;;;;;33.80;18.10;;;;;;;;;;2610869;54;20372;-75
2023/10/09 00:38:33;;;;;;;32.80;18.03;;;;;;;;;;2611400;54;20424;-73
2023/10/09 00:41:13;;;;;;;26.30;17.67;;;;;;;;;;2613754;39;20957;-74
2023/10/09 00:43:43;;;;;;;27.40;17.40;;;;;;;;;;2613486;54;20427;-74
2023/10/09 00:46:16;;;;;;;24.30;17.80;;;;;;;;;;2613636;39;20833;-74
2023/10/09 00:48:47;;;;;;;29.00;17.50;;;;;;;;;;2612628;46;20423;-72
2023/10/09 00:51:16;;;;;;;29.33;17.83;;;;;;;;;;2613148;51;20443;-75
2023/10/09 00:53:51;;;;;;;27.53;16.53;;;;;;;;;;2612537;54;20447;-75
2023/10/09 00:57:07;;;;;;;21.83;17.20;;;;;;;;;;2613262;54;20422;-75
2023/10/09 00:59:14;;;;;;;23.87;15.50;;;;;;;;;;2613086;39;20934;-74
2023/10/09 01:01:57;;;;;;;27.00;16.10;;;;;;;;;;2612180;47;20419;-74
2023/10/09 01:04:25;;;;;;;23.33;16.73;;;;;;;;;;2612674;54;20980;-74
2023/10/09 01:07:08;;;;;;;25.27;17.07;;;;;;;;;;2614196;31;20995;-74
2023/10/09 01:09:43;;;;;;;23.93;16.07;;;;;;;;;;2613159;54;20565;-73
2023/10/09 01:12:16;;;;;;;25.07;16.63;;;;;;;;;;2613189;54;20508;-74
2023/10/09 01:14:43;;;;;;;29.27;16.53;;;;;;;;;;2613230;54;20435;-74
2023/10/09 01:17:10;;;;;;;21.33;15.60;;;;;;;;;;2613651;54;20534;-74
2023/10/09 01:19:36;;;;;;;23.23;16.40;;;;;;;;;;2612750;54;20439;-74
2023/10/09 01:22:12;;;;;;;24.50;14.27;;;;;;;;;;2612726;47;20435;-74
2023/10/09 01:24:38;;;;;;;22.07;15.80;;;;;;;;;;2613133;39;20778;-73
2023/10/09 01:27:12;;;;;;;21.50;15.93;;;;;;;;;;2613384;54;20400;-74
2023/10/09 01:29:41;;;;;;;27.53;18.00;;;;;;;;;;2613066;54;20412;-74
2023/10/09 01:32:16;;;;;;;22.03;15.60;;;;;;;;;;2612350;54;20408;-74
2023/10/09 01:34:43;;;;;;;22.73;15.07;;;;;;;;;;2613160;47;20420;-74
2023/10/09 01:39:47;;;;;;;18.63;14.70;;;;;;;;;;2613266;54;21421;-74
2023/10/09 01:42:23;;;;;;;22.80;16.03;;;;;;;;;;2612833;47;20432;-75
2023/10/09 01:44:50;;;;;;;23.67;14.57;;;;;;;;;;2612658;54;20446;-75
2023/10/09 01:47:18;;;;;;;15.70;13.47;;;;;;;;;;2613285;54;20419;-75
2023/10/09 01:49:48;;;;;;;21.47;14.40;;;;;;;;;;2613377;54;20424;-75
2023/10/09 01:52:16;;;;;;;20.13;14.10;;;;;;;;;;2613465;54;20412;-75
2023/10/09 01:54:47;;;;;;;20.63;13.20;;;;;;;;;;2612766;47;20435;-75
2023/10/09 01:57:13;;;;;;;22.30;14.10;;;;;;;;;;2613498;54;20423;-75
2023/10/09 01:59:43;;;;;;;22.03;15.30;;;;;;;;;;2613383;54;20433;-74
2023/10/09 02:04:41;;;;;;;22.27;14.70;;;;;;;;;;2612853;54;20412;-75
2023/10/09 02:07:08;;;;;;;20.23;13.93;;;;;;;;;;2613461;54;20514;-75
2023/10/09 02:09:35;;;;;;;21.23;14.43;;;;;;;;;;2613061;54;20499;-75
2023/10/09 02:12:02;;;;;;;23.57;13.90;;;;;;;;;;2613062;54;20454;-76
2023/10/09 02:14:29;;;;;;;20.80;15.20;;;;;;;;;;2612489;47;20428;-76
2023/10/09 02:19:59;;;;;;;22.90;15.53;;;;;;;;;;2612309;54;20403;-75
2023/10/09 02:22:26;;;;;;;16.33;12.90;;;;;;;;;;2612273;54;20425;-75
2023/10/09 02:24:57;;;;;;;31.33;15.20;;;;;;;;;;2612298;49;20463;-74
2023/10/09 02:30:30;;;;;;;19.83;13.77;;;;;;;;;;2611650;47;20399;-77
2023/10/09 02:33:06;;;;;;;17.30;12.80;;;;;;;;;;2611754;54;20458;-78
2023/10/09 02:35:37;;;;;;;19.50;15.10;;;;;;;;;;2612504;54;20412;-78
2023/10/09 02:38:06;;;;;;;20.43;12.73;;;;;;;;;;2612347;47;20412;-75
2023/10/09 02:40:40;;;;;;;17.10;12.50;;;;;;;;;;2612116;46;20554;-76
2023/10/09 02:43:06;;;;;;;23.13;14.47;;;;;;;;;;2611560;54;20412;-76
2023/10/09 02:45:37;;;;;;;22.23;14.40;;;;;;;;;;2611811;54;20414;-76
2023/10/09 02:48:10;;;;;;;22.67;13.10;;;;;;;;;;2611573;47;20593;-76
2023/10/09 02:50:38;;;;;;;16.23;12.87;;;;;;;;;;2611790;54;20434;-76
2023/10/09 02:53:09;;;;;;;23.10;13.87;;;;;;;;;;2611707;54;20443;-76
2023/10/09 02:55:38;;;;;;;16.00;12.43;;;;;;;;;;2613603;54;20511;-75
2023/10/09 02:58:06;;;;;;;16.97;13.03;;;;;;;;;;2612724;54;20422;-76
2023/10/09 03:00:36;;;;;;;23.37;13.60;;;;;;;;;;2613073;54;20474;-76
2023/10/09 03:03:06;;;;;;;18.73;13.40;;;;;;;;;;2612790;54;21123;-76
2023/10/09 03:05:32;;;;;;;15.43;12.07;;;;;;;;;;2613079;54;20431;-74
2023/10/09 03:07:59;;;;;;;18.97;13.17;;;;;;;;;;2612568;54;20407;-75
2023/10/09 03:10:25;;;;;;;18.93;13.00;;;;;;;;;;2613494;54;20400;-75
2023/10/09 03:12:53;;;;;;;16.93;11.63;;;;;;;;;;2612623;54;20396;-76
2023/10/09 03:15:22;;;;;;;18.23;13.80;;;;;;;;;;2611840;47;20996;-76
2023/10/09 03:17:48;;;;;;;17.40;13.00;;;;;;;;;;2612956;54;20414;-76
2023/10/09 03:20:17;;;;;;;16.93;12.77;;;;;;;;;;2612456;51;20462;-75
2023/10/09 03:22:44;;;;;;;17.73;12.90;;;;;;;;;;2613600;46;20516;-75
2023/10/09 03:25:16;;;;;;;17.90;13.60;;;;;;;;;;2612397;54;20470;-75
2023/10/09 03:27:45;;;;;;;15.40;12.60;;;;;;;;;;2614092;54;20825;-73
2023/10/09 03:30:16;;;;;;;14.00;11.47;;;;;;;;;;2613681;54;20432;-73
2023/10/09 03:32:43;;;;;;;15.00;12.50;;;;;;;;;;2614050;54;20372;-72
2023/10/09 03:35:13;;;;;;;16.83;11.57;;;;;;;;;;2613965;54;20407;-73
2023/10/09 03:37:39;;;;;;;17.53;12.43;;;;;;;;;;2614119;54;20424;-73
2023/10/09 03:40:07;;;;;;;17.23;12.00;;;;;;;;;;2613851;54;20426;-73
2023/10/09 03:42:36;;;;;;;14.07;11.83;;;;;;;;;;2613679;54;20423;-73
2023/10/09 03:45:12;;;;;;;25.37;13.00;;;;;;;;;;2613308;54;20431;-73
2023/10/09 03:47:43;;;;;;;16.30;13.03;;;;;;;;;;2614399;39;20780;-74
2023/10/09 03:50:23;;;;;;;15.30;12.27;;;;;;;;;;2613731;54;20391;-73
2023/10/09 03:52:50;;;;;;;14.40;12.03;;;;;;;;;;2613816;54;20519;-74
2023/10/09 03:55:16;;;;;;;16.57;12.27;;;;;;;;;;2613042;47;20419;-73
2023/10/09 03:57:45;;;;;;;16.70;12.60;;;;;;;;;;2613556;47;20415;-73
2023/10/09 04:00:27;;;;;;;17.70;12.43;;;;;;;;;;2613514;54;20419;-73
2023/10/09 04:02:57;;;;;;;17.83;13.27;;;;;;;;;;2613872;54;20410;-73
2023/10/09 04:05:24;;;;;;;16.40;11.07;;;;;;;;;;2613873;54;20518;-73
2023/10/09 04:07:53;;;;;;;15.77;11.73;;;;;;;;;;2614461;54;20934;-73
2023/10/09 04:13:08;;;;;;;18.27;11.63;;;;;;;;;;2614198;54;20418;-73
2023/10/09 04:15:35;;;;;;;15.00;12.40;;;;;;;;;;2613931;54;20427;-73
2023/10/09 04:18:03;;;;;;;14.00;11.60;;;;;;;;;;2614083;54;20416;-73
2023/10/09 04:23:05;;;;;;;17.20;12.17;;;;;;;;;;2614065;54;20402;-73
2023/10/09 04:25:41;;;;;;;17.00;11.93;;;;;;;;;;2614409;46;21532;-73
2023/10/09 04:30:42;;;;;;;14.90;11.73;;;;;;;;;;2613992;54;20416;-74
2023/10/09 04:33:27;;;;;;;17.67;11.40;;;;;;;;;;2613242;47;20424;-73
2023/10/09 04:36:16;;;;;;;14.33;11.47;;;;;;;;;;2612400;54;20442;-73
2023/10/09 04:38:52;;;;;;;16.10;12.10;;;;;;;;;;2613469;47;20427;-74
2023/10/09 04:41:27;;;;;;;13.90;10.43;;;;;;;;;;2613775;39;20780;-73
2023/10/09 04:44:18;;;;;;;17.50;10.93;;;;;;;;;;2614348;54;20404;-73
2023/10/09 04:47:17;;;;;;;14.80;13.23;;;;;;;;;;2613486;54;20434;-74
2023/10/09 04:49:45;;;;;;;17.23;12.07;;;;;;;;;;2612338;54;20507;-72
2023/10/09 04:52:19;;;;;;;23.10;14.03;;;;;;;;;;2613100;54;20428;-74
2023/10/09 05:02:56;;;;;;;15.37;11.10;;;;;;;;;;2613284;39;20830;-73
2023/10/09 05:08:20;;;;;;;13.33;10.80;;;;;;;;;;2614289;54;20446;-73
2023/10/09 05:16:25;;;;;;;14.50;10.83;;;;;;;;;;2614318;54;20424;-74
2023/10/09 05:19:28;;;;;;;13.33;11.80;;;;;;;;;;2611443;54;20396;-72
2023/10/09 05:21:58;;;;;;;15.47;11.60;;;;;;;;;;2612242;54;20423;-73
2023/10/09 05:24:26;;;;;;;14.63;11.00;;;;;;;;;;2613525;54;20408;-75
2023/10/09 05:26:52;;;;;;;17.90;11.60;;;;;;;;;;2613183;54;20539;-76
2023/10/09 05:34:22;;;;;;;14.80;10.73;;;;;;;;;;2614629;54;20419;-72
2023/10/09 05:36:49;;;;;;;14.93;11.10;;;;;;;;;;2612449;54;20405;-74
2023/10/09 05:39:22;;;;;;;14.23;10.37;;;;;;;;;;2612483;54;20412;-73
2023/10/09 05:49:54;;;;;;;18.80;11.80;;;;;;;;;;2610194;54;20398;-72
2023/10/09 05:52:32;;;;;;;16.30;11.07;;;;;;;;;;2609656;39;20850;-72
2023/10/09 06:03:23;;;;;;;16.20;13.70;;;;;;;;;;2611486;54;20579;-73
2023/10/09 06:08:26;;;;;;;16.60;13.13;;;;;;;;;;2611431;54;20427;-76
2023/10/09 06:11:06;;;;;;;18.33;13.07;;;;;;;;;;2612087;54;21340;-72
2023/10/09 06:13:40;;;;;;;17.27;13.73;;;;;;;;;;2610394;54;20423;-72
2023/10/09 06:16:19;;;;;;;16.90;12.70;;;;;;;;;;2611394;39;20788;-73
2023/10/09 06:18:53;;;;;;;17.73;12.53;;;;;;;;;;2611965;46;20435;-75
2023/10/09 06:24:16;;;;;;;18.70;11.57;;;;;;;;;;2611720;54;20407;-72
2023/10/09 06:27:11;;;;;;;21.50;12.50;;;;;;;;;;2612302;47;20419;-72
2023/10/09 06:29:36;;;;;;;21.03;12.20;;;;;;;;;;2611727;54;20407;-73
2023/10/09 06:34:56;;;;;;;17.33;12.90;;;;;;;;;;2610936;54;20955;-74
2023/10/09 06:42:33;;;;;;;17.73;13.13;;;;;;;;;;2613249;54;20945;-73
2023/10/09 06:45:18;;;;;;;16.27;11.80;;;;;;;;;;2613299;39;20776;-73
2023/10/09 06:48:40;;;;;;;18.80;13.50;;;;;;;;;;2613511;46;20443;-72
2023/10/09 06:51:07;;;;;;;16.97;11.70;;;;;;;;;;2612094;54;20428;-73
2023/10/09 06:58:57;;;;;;;27.40;13.07;;;;;;;;;;2615664;54;20415;-74
2023/10/09 07:03:53;;;;;;;21.03;14.53;;;;;;;;;;2615663;54;20522;-74
2023/10/09 07:06:24;;;;;;;19.80;13.60;;;;;;;;;;2614803;47;20442;-74
2023/10/09 07:24:58;;;;;;;21.83;16.27;;;;;;;;;;2614706;54;20431;-75
2023/10/09 07:27:44;;;;;;;18.37;13.57;;;;;;;;;;2615225;54;20534;-74
2023/10/09 07:30:57;;;;;;;21.23;13.37;;;;;;;;;;2614856;54;20546;-74
2023/10/09 07:38:09;;;;;;;15.80;12.97;;;;;;;;;;2615024;54;20396;-74
2023/10/09 07:43:28;;;;;;;17.37;14.27;;;;;;;;;;2616065;54;20398;-73
2023/10/09 07:46:29;;;;;;;20.93;14.47;;;;;;;;;;2615721;39;20798;-73
2023/10/09 07:48:52;;;;;;;17.93;15.90;;;;;;;;;;2611880;47;20971;-74
2023/10/09 07:51:23;;;;;;;22.17;15.67;;;;;;;;;;2610778;54;21737;-74
2023/10/09 07:54:06;;;;;;;15.03;13.43;;;;;;;;;;2611863;47;20467;-74
2023/10/09 07:56:45;;;;;;;19.33;14.47;;;;;;;;;;2611985;54;20420;-74
2023/10/09 07:59:11;;;;;;;18.93;13.73;;;;;;;;;;2611276;54;20434;-74
2023/10/09 08:01:59;;;;;;;23.53;13.57;;;;;;;;;;2613126;54;20482;-75
2023/10/09 08:04:39;;;;;;;19.87;14.70;;;;;;;;;;2611915;39;20784;-73
2023/10/09 08:07:07;;;;;;;20.33;13.87;;;;;;;;;;2612750;54;20442;-74
2023/10/09 08:09:46;;;;;;;17.80;13.13;;;;;;;;;;2615435;54;20960;-73
2023/10/09 08:15:20;;;;;;;19.53;13.60;;;;;;;;;;2616560;54;20391;-74
2023/10/09 08:18:27;;;;;;;17.17;13.67;;;;;;;;;;2616066;47;20403;-75
2023/10/09 08:23:48;;;;;;;27.00;14.10;;;;;;;;;;2616374;46;20439;-74
2023/10/09 08:26:13;;;;;;;17.57;12.63;;;;;;;;;;2616777;54;20426;-72
2023/10/09 08:28:45;;;;;;;15.47;13.83;;;;;;;;;;2615751;39;20792;-73
2023/10/09 08:31:19;;;;;;;16.17;14.30;;;;;;;;;;2615300;47;20461;-74
2023/10/09 08:33:56;;;;;;;16.67;14.57;;;;;;;;;;2614896;54;20424;-74
2023/10/09 08:36:24;;;;;;;16.23;14.57;;;;;;;;;;2615771;54;20434;-75
2023/10/09 08:38:58;;;;;;;17.40;14.67;;;;;;;;;;2615526;39;21304;-74
2023/10/09 08:41:29;;;;;;;18.33;15.20;;;;;;;;;;2614997;54;20435;-74
2023/10/09 08:44:03;;;;;;;18.37;15.20;;;;;;;;;;2614763;54;20575;-74
2023/10/09 08:46:31;;;;;;;28.10;17.20;;;;;;;;;;2615341;54;20481;-73
2023/10/09 08:48:59;;;;;;;20.30;16.03;;;;;;;;;;2615082;39;20811;-74
2023/10/09 08:51:25;;;;;;;21.00;16.33;;;;;;;;;;2615206;54;20443;-74
2023/10/09 08:53:52;;;;;;;21.53;15.17;;;;;;;;;;2615144;54;20482;-74
2023/10/09 08:56:24;;;;;;;22.13;16.00;;;;;;;;;;2615273;54;20428;-73
2023/10/09 08:58:54;;;;;;;20.27;14.40;;;;;;;;;;2614841;54;20455;-74
2023/10/09 09:01:21;;;;;;;20.23;13.70;;;;;;;;;;2615574;39;20827;-73
2023/10/09 09:03:50;;;;;;;17.10;13.50;;;;;;;;;;2615005;54;20439;-73
2023/10/09 09:06:16;;;;;;;19.17;14.80;;;;;;;;;;2615542;39;20489;-74
2023/10/09 09:08:44;;;;;;;21.60;14.67;;;;;;;;;;2616427;54;20432;-74
2023/10/09 09:11:12;;;;;;;17.43;15.27;;;;;;;;;;2617017;54;20412;-73
2023/10/09 09:13:52;;;;;;;20.07;16.07;;;;;;;;;;2616805;46;20428;-73
2023/10/09 09:16:18;;;;;;;20.30;17.03;;;;;;;;;;2616348;46;20450;-72
2023/10/09 09:18:56;;;;;;;16.23;14.60;;;;;;;;;;2612938;54;20416;-74
2023/10/09 09:21:23;;;;;;;37.13;27.50;;;;;;;;;;2612844;54;20427;-74
2023/10/09 09:24:01;;;;;;;23.73;17.60;;;;;;;;;;2611381;54;20415;-75
2023/10/09 09:26:37;;;;;;;19.27;16.10;;;;;;;;;;2613063;54;20438;-74
2023/10/09 09:29:08;;;;;;;22.20;16.83;;;;;;;;;;2613384;54;20400;-75
2023/10/09 09:31:38;;;;;;;31.27;18.23;;;;;;;;;;2613653;39;20811;-76
2023/10/09 09:34:16;;;;;;;19.10;15.80;;;;;;;;;;2613390;54;20946;-77
2023/10/09 09:36:53;;;;;;;19.50;16.90;;;;;;;;;;2613218;54;20404;-77
2023/10/09 09:39:26;;;;;;;17.70;13.93;;;;;;;;;;2612586;54;20442;-77
2023/10/09 09:41:57;;;;;;;19.83;14.53;;;;;;;;;;2612377;46;20431;-76
2023/10/09 09:44:30;;;;;;;17.23;14.33;;;;;;;;;;2613044;39;20899;-77
2023/10/09 09:46:59;;;;;;;16.70;14.83;;;;;;;;;;2612570;54;20473;-77
2023/10/09 09:49:31;;;;;;;15.83;13.57;;;;;;;;;;2614188;39;20896;-76
2023/10/09 09:52:09;;;;;;;16.10;11.93;;;;;;;;;;2611600;54;20379;-78
2023/10/09 09:54:38;;;;;;;15.40;12.70;;;;;;;;;;2610524;54;20443;-78
2023/10/09 09:57:10;;;;;;;23.83;13.53;;;;;;;;;;2609689;54;20420;-78
2023/10/09 09:59:40;;;;;;;21.50;14.50;;;;;;;;;;2611790;47;20419;-77
2023/10/09 10:02:08;;;;;;;17.30;13.93;;;;;;;;;;2611330;39;20830;-78
2023/10/09 10:04:37;;;;;;;16.97;15.20;;;;;;;;;;2611933;39;21281;-78
2023/10/09 10:07:12;;;;;;;14.13;12.57;;;;;;;;;;2611755;54;20423;-78
2023/10/09 10:09:41;;;;;;;13.50;12.30;;;;;;;;;;2611928;54;20977;-77
2023/10/09 10:12:11;;;;;;;15.70;12.97;;;;;;;;;;2611781;47;21037;-78
2023/10/09 10:14:52;;;;;;;18.30;13.70;;;;;;;;;;2612095;39;20783;-77
2023/10/09 10:17:20;;;;;;;15.77;14.20;;;;;;;;;;2611519;54;20423;-78
2023/10/09 10:20:13;;;;;;;18.40;15.87;;;;;;;;;;2611705;54;21908;-77
2023/10/09 10:22:47;;;;;;;15.40;13.10;;;;;;;;;;2612343;54;20391;-79
2023/10/09 10:25:48;;;;;;;16.03;14.40;;;;;;;;;;2613713;54;20969;-78
2023/10/09 10:31:03;;;;;;;15.13;13.63;;;;;;;;;;2613048;54;20395;-77
2023/10/09 10:33:48;;;;;;;17.10;13.23;;;;;;;;;;2612262;54;20427;-77
2023/10/09 10:36:22;;;;;;;14.00;12.60;;;;;;;;;;2612700;54;20427;-77
2023/10/09 10:39:07;;;;;;;17.13;14.50;;;;;;;;;;2612037;54;20427;-75
2023/10/09 10:41:51;;;;;;;17.07;13.80;;;;;;;;;;2612324;54;20439;-73
2023/10/09 10:44:33;;;;;;;18.30;15.00;;;;;;;;;;2611828;54;21032;-74
2023/10/09 10:47:01;;;;;;;17.93;14.67;;;;;;;;;;2612035;47;20470;-77
2023/10/09 10:49:36;;;;;;;14.73;13.30;;;;;;;;;;2610220;54;20499;-75
2023/10/09 10:52:15;;;;;;;17.07;15.27;;;;;;;;;;2611452;54;20450;-74
2023/10/09 10:57:30;;;;;;;16.80;13.33;;;;;;;;;;2612862;54;20426;-76
2023/10/09 11:01:11;;;;;;;15.80;14.20;;;;;;;;;;2612593;47;20408;-74
2023/10/09 11:03:17;;;;;;;16.03;14.53;;;;;;;;;;2613006;47;20415;-75
2023/10/09 11:05:50;;;;;;;15.10;13.40;;;;;;;;;;2612661;47;20403;-74
2023/10/09 11:08:22;;;;;;;17.13;15.43;;;;;;;;;;2612567;47;20446;-76
2023/10/09 11:10:53;;;;;;;15.97;14.27;;;;;;;;;;2612207;39;20807;-75
2023/10/09 11:13:30;;;;;;;16.30;14.80;;;;;;;;;;2612784;39;20914;-75
2023/10/09 11:16:14;;;;;;;16.67;14.90;;;;;;;;;;2611786;47;20423;-74
2023/10/09 11:18:47;;;;;;;17.63;14.40;;;;;;;;;;2610054;39;20823;-76
2023/10/09 11:26:31;;;;;;;17.13;15.17;;;;;;;;;;2612356;54;20430;-77
2023/10/09 11:29:14;;;;;;;17.27;15.67;;;;;;;;;;2612938;54;20942;-77
2023/10/09 11:32:00;;;;;;;20.87;15.30;;;;;;;;;;2611897;54;20407;-75
2023/10/09 11:34:31;;;;;;;16.23;14.70;;;;;;;;;;2612631;54;21358;-76
2023/10/09 11:37:01;;;;;;;20.43;15.93;;;;;;;;;;2612635;54;20404;-76
2023/10/09 11:39:32;;;;;;;19.83;16.60;;;;;;;;;;2612781;47;20487;-76
2023/10/09 11:42:04;;;;;;;18.53;16.50;;;;;;;;;;2613303;54;20504;-76
2023/10/09 11:44:40;;;;;;;17.17;15.43;;;;;;;;;;2612517;51;20415;-76
2023/10/09 11:47:32;;;;;;;18.97;17.10;;;;;;;;;;2613342;54;21326;-76
2023/10/09 11:50:13;;;;;;;19.57;17.57;;;;;;;;;;2612161;54;20458;-76
2023/10/09 11:53:08;;;;;;;21.90;16.47;;;;;;;;;;2613347;47;20431;-77
2023/10/09 11:55:35;;;;;;;20.33;17.67;;;;;;;;;;2613846;31;20985;-76
2023/10/09 11:58:02;;;;;;;21.60;18.63;;;;;;;;;;2613049;54;20535;-75
2023/10/09 12:00:29;;;;;;;18.30;15.40;;;;;;;;;;2613195;54;20431;-76
2023/10/09 12:02:56;;;;;;;18.53;16.63;;;;;;;;;;2612915;47;20442;-76
2023/10/09 12:05:23;;;;;;;17.53;15.67;;;;;;;;;;2613957;54;20450;-75
2023/10/09 12:07:54;;;;;;;18.47;16.00;;;;;;;;;;2613353;54;20981;-76
2023/10/09 12:10:25;;;;;;;18.37;16.43;;;;;;;;;;2613179;47;20428;-76
2023/10/09 12:12:52;;;;;;;23.03;17.00;;;;;;;;;;2613141;54;20407;-76
2023/10/09 12:15:19;;;;;;;17.87;16.17;;;;;;;;;;2613425;47;20450;-76
2023/10/09 12:17:47;;;;;;;17.87;16.00;;;;;;;;;;2613584;47;20422;-77
2023/10/09 12:20:29;;;;;;;16.80;15.10;;;;;;;;;;2613431;39;20778;-77
2023/10/09 12:22:57;;;;;;;17.30;15.27;;;;;;;;;;2614076;54;20423;-77
2023/10/09 12:25:24;;;;;;;18.60;16.20;;;;;;;;;;2612899;54;20474;-77
2023/10/09 12:27:50;;;;;;;19.00;16.03;;;;;;;;;;2613176;54;20424;-75
2023/10/09 12:30:16;;;;;;;18.63;15.13;;;;;;;;;;2612541;54;20396;-75
2023/10/09 12:32:43;;;;;;;16.73;15.07;;;;;;;;;;2613220;54;20403;-74
2023/10/09 12:35:17;;;;;;;19.00;17.20;;;;;;;;;;2612348;51;20419;-75
2023/10/09 12:37:43;;;;;;;20.30;17.63;;;;;;;;;;2610252;54;20396;-74
2023/10/09 12:40:10;;;;;;;18.40;16.60;;;;;;;;;;2610323;54;20419;-75
2023/10/09 12:42:37;;;;;;;18.93;16.90;;;;;;;;;;2609469;47;20419;-75
2023/10/09 12:45:10;;;;;;;20.63;18.43;;;;;;;;;;2611050;54;20407;-74
2023/10/09 12:47:40;;;;;;;18.03;16.17;;;;;;;;;;2610234;54;20530;-75
2023/10/09 12:50:13;;;;;;;18.77;16.80;;;;;;;;;;2610914;39;20809;-76
2023/10/09 12:52:39;;;;;;;19.10;17.30;;;;;;;;;;2610495;47;20447;-75
2023/10/09 12:55:08;;;;;;;19.70;17.80;;;;;;;;;;2611970;54;20469;-74
2023/10/09 12:57:36;;;;;;;19.27;15.43;;;;;;;;;;2611544;54;20415;-76
2023/10/09 13:00:10;;;;;;;23.17;18.73;;;;;;;;;;2609834;47;20435;-77
2023/10/09 13:02:37;;;;;;;19.37;17.47;;;;;;;;;;2609310;54;20441;-76
2023/10/09 13:05:07;;;;;;;18.40;16.50;;;;;;;;;;2609859;54;20402;-75
2023/10/09 13:07:34;;;;;;;19.00;17.23;;;;;;;;;;2612824;54;20897;-76
2023/10/09 13:10:12;;;;;;;18.13;16.50;;;;;;;;;;2612806;54;20408;-76
2023/10/09 13:12:40;;;;;;;22.07;18.70;;;;;;;;;;2612941;54;20472;-76
2023/10/09 13:15:09;;;;;;;19.00;17.00;;;;;;;;;;2613065;54;20411;-76
2023/10/09 13:17:36;;;;;;;20.03;18.03;;;;;;;;;;2612132;54;20419;-75
2023/10/09 13:20:12;;;;;;;27.03;19.47;;;;;;;;;;2612773;47;20400;-76
2023/10/09 13:22:39;;;;;;;18.70;16.60;;;;;;;;;;2612246;46;20419;-76
2023/10/09 13:25:06;;;;;;;27.53;20.80;;;;;;;;;;2614183;54;20423;-76
2023/10/09 13:27:35;;;;;;;18.23;16.43;;;;;;;;;;2612334;50;20407;-76
2023/10/09 13:30:05;;;;;;;22.40;18.37;;;;;;;;;;2613003;46;20423;-76
2023/10/09 13:32:35;;;;;;;19.80;17.80;;;;;;;;;;2613151;47;20420;-76
2023/10/09 13:35:03;;;;;;;22.67;17.20;;;;;;;;;;2611742;54;20419;-76
2023/10/09 13:37:31;;;;;;;18.87;16.90;;;;;;;;;;2613061;47;20962;-76
2023/10/09 13:39:59;;;;;;;20.50;17.23;;;;;;;;;;2611879;47;20399;-76
2023/10/09 13:42:25;;;;;;;21.73;19.60;;;;;;;;;;2612175;54;20451;-75
2023/10/09 13:44:53;;;;;;;20.40;18.20;;;;;;;;;;2612921;39;20815;-76
2023/10/09 13:47:20;;;;;;;22.23;19.83;;;;;;;;;;2613165;51;20428;-76
2023/10/09 13:49:50;;;;;;;21.77;19.40;;;;;;;;;;2613106;51;20491;-76
2023/10/09 13:52:21;;;;;;;23.63;19.50;;;;;;;;;;2612179;54;20511;-76
2023/10/09 13:54:49;;;;;;;20.90;18.87;;;;;;;;;;2612812;49;20463;-76
2023/10/09 13:57:16;;;;;;;22.63;20.30;;;;;;;;;;2610878;54;20443;-76
2023/10/09 13:59:48;;;;;;;24.43;19.43;;;;;;;;;;2613868;54;20514;-76
2023/10/09 14:02:18;;;;;;;22.83;19.33;;;;;;;;;;2611815;51;20419;-76
2023/10/09 14:04:46;;;;;;;26.83;18.97;;;;;;;;;;2613006;47;20416;-76
2023/10/09 14:07:16;;;;;;;21.27;17.10;;;;;;;;;;2612454;54;20415;-76
2023/10/09 14:09:55;;;;;;;21.27;18.30;;;;;;;;;;2610591;39;20910;-77
2023/10/09 14:12:21;;;;;;;26.77;18.03;;;;;;;;;;2610109;47;21083;-77
2023/10/09 14:14:48;;;;;;;23.10;18.40;;;;;;;;;;2610651;54;20406;-77
2023/10/09 14:17:42;;;;;;;25.10;20.57;;;;;;;;;;2611938;54;20550;-77
2023/10/09 14:20:30;;;;;;;20.60;18.37;;;;;;;;;;2612332;54;20400;-77
2023/10/09 14:22:56;;;;;;;22.13;18.60;;;;;;;;;;2611730;47;20424;-77
2023/10/09 14:25:23;;;;;;;25.30;21.37;;;;;;;;;;2612050;54;20412;-77
2023/10/09 14:27:49;;;;;;;23.50;18.43;;;;;;;;;;2613159;54;20423;-77
2023/10/09 14:30:22;;;;;;;22.00;19.70;;;;;;;;;;2613399;39;20750;-78
2023/10/09 14:32:55;;;;;;;21.93;19.63;;;;;;;;;;2612678;47;20974;-78
2023/10/09 14:35:26;;;;;;;21.77;19.23;;;;;;;;;;2611731;54;20423;-78
2023/10/09 14:37:53;;;;;;;21.60;18.60;;;;;;;;;;2610843;54;20420;-78
2023/10/09 14:40:29;;;;;;;24.50;20.27;;;;;;;;;;2611200;46;20461;-78
2023/10/09 14:42:57;;;;;;;26.17;19.97;;;;;;;;;;2609597;54;20402;-77
2023/10/09 14:45:25;;;;;;;19.53;17.53;;;;;;;;;;2609831;54;20428;-77
2023/10/09 14:47:53;;;;;;;22.20;19.90;;;;;;;;;;2609810;54;20420;-77
2023/10/09 14:50:21;;;;;;;24.13;19.97;;;;;;;;;;2612424;54;20419;-77
2023/10/09 14:52:48;;;;;;;24.70;21.20;;;;;;;;;;2609614;47;20407;-77
2023/10/09 14:55:20;;;;;;;29.17;20.97;;;;;;;;;;2611376;54;20430;-76
2023/10/09 14:57:46;;;;;;;28.60;20.17;;;;;;;;;;2608158;54;20431;-77
2023/10/09 15:00:15;;;;;;;26.83;19.70;;;;;;;;;;2613951;54;20542;-74
2023/10/09 15:02:42;;;;;;;26.63;20.60;;;;;;;;;;2615839;47;20507;-75
2023/10/09 15:05:11;;;;;;;24.13;19.10;;;;;;;;;;2615699;47;20935;-76
2023/10/09 15:07:38;;;;;;;26.30;18.73;;;;;;;;;;2616642;54;20453;-76
2023/10/09 15:10:10;;;;;;;28.00;20.83;;;;;;;;;;2615929;54;20535;-75
2023/10/09 15:12:42;;;;;;;21.20;18.90;;;;;;;;;;2616162;47;20411;-75
2023/10/09 15:15:18;;;;;;;25.40;20.93;;;;;;;;;;2615945;54;20419;-75
2023/10/09 15:17:47;;;;;;;22.97;20.03;;;;;;;;;;2615891;39;20954;-75
2023/10/09 15:20:14;;;;;;;31.77;21.73;;;;;;;;;;2611698;47;20430;-78
2023/10/09 15:22:44;;;;;;;23.47;20.67;;;;;;;;;;2610272;54;20415;-78
2023/10/09 15:25:14;;;;;;;22.90;20.17;;;;;;;;;;2613083;54;20407;-78
2023/10/09 15:27:43;;;;;;;28.33;19.00;;;;;;;;;;2610747;54;20431;-77
2023/10/09 15:30:13;;;;;;;24.97;19.97;;;;;;;;;;2610599;47;20407;-78
2023/10/09 15:32:40;;;;;;;21.90;19.57;;;;;;;;;;2610941;54;21020;-78
2023/10/09 15:35:06;;;;;;;25.70;20.23;;;;;;;;;;2609776;54;20463;-78
2023/10/09 15:37:32;;;;;;;21.53;19.30;;;;;;;;;;2610948;54;20387;-78
2023/10/09 15:40:04;;;;;;;24.13;21.27;;;;;;;;;;2611044;54;20432;-78
2023/10/09 15:42:30;;;;;;;26.20;21.10;;;;;;;;;;2611602;54;20519;-78
2023/10/09 15:44:56;;;;;;;23.80;18.83;;;;;;;;;;2612656;47;20965;-78
2023/10/09 15:47:22;;;;;;;23.87;19.50;;;;;;;;;;2612015;54;20965;-78
2023/10/09 15:49:48;;;;;;;24.77;20.37;;;;;;;;;;2611466;50;20538;-78
2023/10/09 15:52:16;;;;;;;25.03;19.80;;;;;;;;;;2613503;54;20977;-78
2023/10/09 15:54:45;;;;;;;23.50;19.67;;;;;;;;;;2611740;54;20454;-77
2023/10/09 15:57:11;;;;;;;25.90;19.37;;;;;;;;;;2610931;54;20435;-78
2023/10/09 15:59:37;;;;;;;21.00;18.80;;;;;;;;;;2610146;54;20396;-78
2023/10/09 16:02:03;;;;;;;21.83;19.83;;;;;;;;;;2628162;36;21036;-76
2023/10/09 16:04:33;;;;;;;27.00;21.00;;;;;;;;;;2610277;54;20435;-78
2023/10/09 16:07:00;;;;;;;26.40;19.93;;;;;;;;;;2610350;54;21224;-76
2023/10/09 16:09:28;;;;;;;28.60;20.90;;;;;;;;;;2612403;47;20443;-77
2023/10/09 16:11:55;;;;;;;21.53;18.40;;;;;;;;;;2610626;39;20911;-77
2023/10/09 16:14:21;;;;;;;26.40;20.37;;;;;;;;;;2612981;54;20403;-78
2023/10/09 16:16:47;;;;;;;25.63;19.53;;;;;;;;;;2612286;54;21045;-78
2023/10/09 16:19:15;;;;;;;24.17;21.00;;;;;;;;;;2612173;54;20967;-78
2023/10/09 16:21:42;;;;;;;25.43;20.53;;;;;;;;;;2611881;46;20466;-79
2023/10/09 16:24:09;;;;;;;29.10;20.97;;;;;;;;;;2612549;39;21040;-78
2023/10/09 16:26:45;;;;;;;29.10;20.37;;;;;;;;;;2613001;54;20420;-79
2023/10/09 16:29:12;;;;;;;30.93;19.67;;;;;;;;;;2614251;54;20431;-81
2023/10/09 16:31:39;;;;;;;28.50;20.03;;;;;;;;;;2612523;54;21377;-76
2023/10/09 16:34:06;;;;;;;24.27;20.60;;;;;;;;;;2611754;54;20432;-73
2023/10/09 16:36:36;;;;;;;23.20;20.73;;;;;;;;;;2610995;54;20451;-74
2023/10/09 16:39:03;;;;;;;22.80;19.80;;;;;;;;;;2613119;54;20519;-73
2023/10/09 16:41:46;;;;;;;25.13;19.73;;;;;;;;;;2616804;46;20448;-73
2023/10/09 16:44:17;;;;;;;23.90;20.87;;;;;;;;;;2616818;47;20427;-74
2023/10/09 16:46:53;;;;;;;26.67;20.70;;;;;;;;;;2615621;47;20450;-74